FRSO2: Muddy Boggy Cr, Farris, OK

Data processed at Fri Feb 23 2018 21:38


All information presented herein is the property of the government of the United States of America and may be revised or deleted at any time without prior notice.
Dissemination of this information without the expressed written consent of the Public Affairs Office, Tulsa District U.S. Army Corps of Engineers is strictly prohibited.
These data are gathered electronically and, as presented, have not undergone any form of quality control. These data are not guaranteed to be valid or correct.
Go to home page.
Go to station list.

Upstream stations:

Downstream station:
Previous Day
Next Day
Current Day
    
SHEF ID:       FRSO2     Muddy Boggy Creek near Farris, O
STATION TYPE:  

               PRECIP PRECIP(A)     STAGE  RIV-FLOW  BAT-LOAD
                   in        in        ft       cfs      volt
              Ccp-Rev   Ccp-Rev   Ccp-Rev   Ccp-Rev   Ccp-Rev
(US/Central)
02/23 00:00      0.00      ----     21.72      3410     12.41
02/23 01:00      0.00      ----     21.49      3320     12.41
02/23 02:00      0.00      ----     21.25      3220     12.41
02/23 03:00      0.00      ----     20.98      3110     12.41
02/23 04:00      0.00      ----     20.72      3010     12.41
02/23 05:00      0.00      ----     20.47      2910     12.41
02/23 06:00      0.00      ----     20.22      2820     12.41
02/23 07:00      0.01      ----     19.97      2720     12.41
02/23 08:00      0.12      ----     19.71      2630     12.41
02/23 09:00      0.09      ----     19.46      2530     12.41
02/23 10:00      0.34      ----     19.25      2460     12.41
02/23 11:00      0.23      ----     19.25      2460     12.41
02/23 12:00      0.01      ----     19.34      2490     12.41
02/23 13:00      0.19      ----     19.54      2560     12.41
02/23 14:00      0.00      ----     19.70      2620     12.41
02/23 15:00      0.00      ----     19.80      2660     12.49
02/23 16:00      0.00      ----     19.92      2700     12.49
02/23 17:00      0.02      ----     20.12      2780     12.41
02/23 18:00      0.06      ----     20.52      2930     12.41
02/23 19:00      0.00      ----     21.15      3180     12.41
02/23 20:00      0.02      ----     21.96      3520     12.41
02/23 21:00      ----      ----      ----      ----      ----
02/23 22:00      ----      ----      ----      ----      ----
02/23 23:00      ----      ----      ----      ----      ----